Terminal Aerodrome Forecast
Issued by NWS

Home | Current Version | Previous Version | Text Only | Print | Product List | Glossary On
Versions: 1 2 3 4 5 6 7 8 9 10 11 12 13 14
000
FTUS45 KGGW 220500
TAFOLF
TAF
KOLF 220527Z 2206/2306 07006KT P6SM BKN120
     FM221300 09012KT P6SM FEW150 SCT250
     FM221700 11013G19KT P6SM FEW250
     FM222200 13018G26KT P6SM SCT150 BKN250
     FM230300 09023G31KT P6SM VCTS BKN090CB=

USA.gov is the U.S. government's official web portal to all federal, state and local government web resources and services.